Time;durP1;ratioP1;P1;durP2;ratioP2;P2;SDS_P1;SDS_P2;PMS_P1;PMS_P2;Temp;Humidity;BMP_temperature;BMP_pressure;BME280_temperature;BME280_humidity;BME280_pressure;Samples;Min_cycle;Max_cycle;Signal;HPM_P1;HPM_P2
2022/10/16 00:01:12;;;;;;;8.27;8.07;;;15.70;99.90;;;;;;5099953;28;20234;-79
2022/10/16 00:03:44;;;;;;;8.50;8.30;;;15.70;99.90;;;;;;5107613;27;20218;-79
2022/10/16 00:06:13;;;;;;;8.57;8.38;;;15.60;99.90;;;;;;5115352;28;20225;-80
2022/10/16 00:08:43;;;;;;;8.57;8.38;;;15.60;99.90;;;;;;5118461;28;20248;-79
2022/10/16 00:11:13;;;;;;;8.73;8.52;;;15.60;99.90;;;;;;5119723;28;20225;-79
2022/10/16 00:13:43;;;;;;;8.57;8.38;;;15.60;99.90;;;;;;5116184;27;20252;-80
2022/10/16 00:16:12;;;;;;;8.80;8.60;;;15.60;99.90;;;;;;5105448;28;20252;-81
2022/10/16 00:18:42;;;;;;;8.48;8.27;;;15.70;99.90;;;;;;5101817;28;20235;-82
2022/10/16 00:21:14;;;;;;;8.45;8.25;;;15.70;99.90;;;;;;5101935;28;20255;-81
2022/10/16 00:23:42;;;;;;;8.60;8.40;;;15.70;99.90;;;;;;5102300;28;20275;-80
2022/10/16 00:26:14;;;;;;;8.38;8.18;;;15.70;99.90;;;;;;5101144;28;20253;-81
2022/10/16 00:28:41;;;;;;;8.68;8.48;;;15.70;99.90;;;;;;5105908;28;20305;-80
2022/10/16 00:31:12;;;;;;;8.60;8.40;;;15.70;99.90;;;;;;5105020;28;20243;-80
2022/10/16 00:33:42;;;;;;;8.48;8.27;;;15.60;99.90;;;;;;5117657;27;20264;-79
2022/10/16 00:36:13;;;;;;;8.52;8.32;;;15.60;99.90;;;;;;5118112;27;20244;-81
2022/10/16 00:38:41;;;;;;;8.23;8.02;;;15.60;99.90;;;;;;5113107;28;20225;-81
2022/10/16 00:41:15;;;;;;;8.68;8.48;;;15.50;99.90;;;;;;5101393;28;20222;-81
2022/10/16 00:43:45;;;;;;;8.48;8.27;;;15.50;99.90;;;;;;5090666;28;20238;-82
2022/10/16 00:46:19;;;;;;;8.40;8.20;;;15.50;99.90;;;;;;5080649;28;20247;-80
2022/10/16 00:48:54;;;;;;;8.30;8.10;;;15.50;99.90;;;;;;5082387;28;20226;-81
2022/10/16 00:51:25;;;;;;;8.30;8.10;;;15.40;99.90;;;;;;5080090;28;20313;-81
2022/10/16 00:53:53;;;;;;;8.40;8.20;;;15.40;99.90;;;;;;5081169;28;20237;-80
2022/10/16 00:56:22;;;;;;;8.57;8.37;;;15.40;99.90;;;;;;5080374;28;20273;-81
2022/10/16 00:58:50;;;;;;;8.65;8.45;;;15.40;99.90;;;;;;5081281;28;20257;-80
2022/10/16 01:01:19;;;;;;;8.53;8.33;;;15.40;99.90;;;;;;5080513;28;20250;-81
2022/10/16 01:03:49;;;;;;;8.40;8.20;;;15.40;99.90;;;;;;5081047;28;20284;-81
2022/10/16 01:06:27;;;;;;;8.35;8.15;;;15.40;99.90;;;;;;5080516;28;20265;-81
2022/10/16 01:09:08;;;;;;;8.40;8.20;;;15.30;99.90;;;;;;5080675;28;20230;-82
2022/10/16 01:11:45;;;;;;;8.48;8.27;;;15.40;99.90;;;;;;5080348;28;20305;-81
2022/10/16 01:14:22;;;;;;;8.53;8.33;;;15.40;99.90;;;;;;5080607;28;20249;-80
2022/10/16 01:16:58;;;;;;;8.50;8.30;;;15.40;99.90;;;;;;5079321;28;20304;-80
2022/10/16 01:19:50;;;;;;;8.52;8.32;;;15.30;99.90;;;;;;5080346;28;20285;-81
2022/10/16 01:22:20;;;;;;;8.70;8.50;;;15.30;99.90;;;;;;5080025;28;20273;-81
2022/10/16 01:24:51;;;;;;;8.52;8.32;;;15.30;99.90;;;;;;5079601;28;20321;-81
2022/10/16 01:27:24;;;;;;;8.35;8.15;;;15.30;99.90;;;;;;5079158;28;20328;-80
2022/10/16 01:29:55;;;;;;;8.40;8.20;;;15.30;99.90;;;;;;5078034;28;20326;-80
2022/10/16 01:32:31;;;;;;;8.40;8.20;;;15.40;99.90;;;;;;5077706;28;20280;-81
2022/10/16 01:35:04;;;;;;;8.82;8.52;;;15.30;99.90;;;;;;5077061;28;20294;-80
2022/10/16 01:37:40;;;;;;;8.55;8.35;;;15.40;99.90;;;;;;5077088;28;20280;-82
2022/10/16 01:40:13;;;;;;;8.60;8.40;;;15.40;99.90;;;;;;5077975;28;20258;-82
2022/10/16 01:42:50;;;;;;;8.77;8.52;;;15.40;99.90;;;;;;5077826;28;20326;-81
2022/10/16 01:45:20;;;;;;;8.50;8.30;;;15.30;99.90;;;;;;5076955;28;20260;-81
2022/10/16 01:47:51;;;;;;;8.70;8.48;;;15.30;99.90;;;;;;5077071;28;20265;-80
2022/10/16 01:50:21;;;;;;;8.35;8.15;;;15.30;99.90;;;;;;5077415;28;20301;-81
2022/10/16 01:52:54;;;;;;;8.80;8.50;;;15.30;99.90;;;;;;5077773;28;20234;-81
2022/10/16 01:55:31;;;;;;;8.48;8.27;;;15.30;99.90;;;;;;5077482;28;20359;-81
2022/10/16 01:58:04;;;;;;;8.75;8.45;;;15.30;99.90;;;;;;5077093;28;20240;-80
2022/10/16 02:00:33;;;;;;;8.80;8.50;;;15.30;99.90;;;;;;5077805;28;20252;-82
2022/10/16 02:03:04;;;;;;;8.80;8.50;;;15.30;99.90;;;;;;5077794;28;20266;-81
2022/10/16 02:05:38;;;;;;;8.80;8.50;;;15.30;99.90;;;;;;5076927;28;20236;-82
2022/10/16 02:08:06;;;;;;;8.90;8.60;;;15.30;99.90;;;;;;5083773;28;20268;-81
2022/10/16 02:10:36;;;;;;;9.00;8.70;;;15.30;99.90;;;;;;5098215;28;20272;-81
2022/10/16 02:13:11;;;;;;;8.50;8.30;;;15.30;99.90;;;;;;5099424;28;20237;-81
2022/10/16 02:15:40;;;;;;;8.85;8.55;;;15.30;99.90;;;;;;5098224;28;20245;-81
2022/10/16 02:18:10;;;;;;;8.85;8.55;;;15.30;99.90;;;;;;5097179;28;20237;-79
2022/10/16 02:20:46;;;;;;;8.80;8.50;;;15.30;99.90;;;;;;5097883;28;20222;-80
2022/10/16 02:23:28;;;;;;;8.75;8.50;;;15.30;99.90;;;;;;5095959;28;20301;-81
2022/10/16 02:25:57;;;;;;;8.80;8.50;;;15.30;99.90;;;;;;5098159;28;20285;-80
2022/10/16 02:28:35;;;;;;;8.50;8.30;;;15.30;99.90;;;;;;5099991;28;20285;-81
2022/10/16 02:31:07;;;;;;;8.40;8.20;;;15.30;99.90;;;;;;5101090;28;20278;-81
2022/10/16 02:33:37;;;;;;;8.52;8.32;;;15.30;99.90;;;;;;5098623;28;20242;-80
2022/10/16 02:36:04;;;;;;;8.50;8.30;;;15.30;99.90;;;;;;5097451;28;20234;-81
2022/10/16 02:38:32;;;;;;;8.85;8.55;;;15.30;99.90;;;;;;5097362;28;20226;-81
2022/10/16 02:41:00;;;;;;;8.80;8.50;;;15.30;99.90;;;;;;5096011;28;20218;-80
2022/10/16 02:43:30;;;;;;;8.57;8.38;;;15.30;99.90;;;;;;5090563;28;20312;-80
2022/10/16 02:45:59;;;;;;;8.70;8.50;;;15.30;99.90;;;;;;5080764;28;20236;-82
2022/10/16 02:48:26;;;;;;;8.60;8.40;;;15.20;99.90;;;;;;5084977;28;20214;-81
2022/10/16 02:50:54;;;;;;;8.53;8.33;;;15.20;99.90;;;;;;5087104;28;20226;-80
2022/10/16 02:53:22;;;;;;;8.50;8.30;;;15.20;99.90;;;;;;5089190;28;20306;-80
2022/10/16 02:55:49;;;;;;;8.50;8.30;;;15.20;99.90;;;;;;5080419;28;20230;-81
2022/10/16 02:58:17;;;;;;;8.50;8.30;;;15.30;99.90;;;;;;5094748;28;20253;-80
2022/10/16 03:00:46;;;;;;;8.63;8.40;;;15.30;99.90;;;;;;5080604;28;20218;-80
2022/10/16 03:03:14;;;;;;;8.80;8.50;;;15.30;99.90;;;;;;5080503;28;20256;-81
2022/10/16 03:05:45;;;;;;;8.80;8.50;;;15.30;99.90;;;;;;5079842;28;20253;-81
2022/10/16 03:08:13;;;;;;;8.60;8.35;;;15.30;99.90;;;;;;5080659;28;20296;-82
2022/10/16 03:10:42;;;;;;;8.43;8.23;;;15.30;99.90;;;;;;5081711;28;20234;-81
2022/10/16 03:13:24;;;;;;;8.60;8.40;;;15.30;99.90;;;;;;5082227;28;20258;-81
2022/10/16 03:15:54;;;;;;;8.93;8.63;;;15.30;99.90;;;;;;5092966;28;20391;-81
2022/10/16 03:18:21;;;;;;;8.80;8.50;;;15.30;99.90;;;;;;5103506;28;20241;-83
2022/10/16 03:20:49;;;;;;;8.55;8.35;;;15.30;99.90;;;;;;5104293;28;20277;-80
2022/10/16 03:23:22;;;;;;;8.80;8.50;;;15.30;99.90;;;;;;5100661;28;20226;-81
2022/10/16 03:25:50;;;;;;;8.60;8.40;;;15.40;99.90;;;;;;5100109;28;20229;-80
2022/10/16 03:28:18;;;;;;;8.85;8.55;;;15.40;99.90;;;;;;5100514;28;20261;-81
2022/10/16 03:30:47;;;;;;;9.02;8.73;;;15.30;99.90;;;;;;5100331;28;20320;-81
2022/10/16 03:33:16;;;;;;;8.95;8.65;;;15.40;99.90;;;;;;5100641;28;20306;-82
2022/10/16 03:35:44;;;;;;;9.05;8.75;;;15.30;99.90;;;;;;5099486;28;20233;-80
2022/10/16 03:38:11;;;;;;;8.90;8.60;;;15.30;99.90;;;;;;5098489;28;20229;-80
2022/10/16 03:40:39;;;;;;;9.02;8.73;;;15.30;99.90;;;;;;5098384;28;20373;-80
2022/10/16 03:43:07;;;;;;;8.90;8.60;;;15.30;99.90;;;;;;5092198;28;20328;-80
2022/10/16 03:45:35;;;;;;;8.90;8.60;;;15.20;99.90;;;;;;5099682;28;20287;-82
2022/10/16 03:48:03;;;;;;;8.82;8.52;;;15.20;99.90;;;;;;5100315;28;20237;-80
2022/10/16 03:50:32;;;;;;;8.90;8.60;;;15.20;99.90;;;;;;5104075;28;20260;-80
2022/10/16 03:52:59;;;;;;;8.98;8.68;;;15.10;99.90;;;;;;5119656;28;20259;-80
2022/10/16 03:55:27;;;;;;;8.60;8.40;;;15.10;99.90;;;;;;5103359;28;20252;-81
2022/10/16 03:57:55;;;;;;;8.90;8.60;;;15.10;99.90;;;;;;5099609;28;20253;-81
2022/10/16 04:00:23;;;;;;;9.17;8.87;;;15.00;99.90;;;;;;5099531;28;20226;-81
2022/10/16 04:02:51;;;;;;;8.93;8.63;;;15.10;99.90;;;;;;5099398;28;20313;-81
2022/10/16 04:05:18;;;;;;;8.97;8.67;;;15.10;99.90;;;;;;5099171;28;20283;-81
2022/10/16 04:07:48;;;;;;;9.00;8.70;;;15.10;99.90;;;;;;5099556;28;20244;-80
2022/10/16 04:10:16;;;;;;;9.00;8.70;;;15.10;99.90;;;;;;5099543;28;20226;-81
2022/10/16 04:12:44;;;;;;;9.05;8.75;;;15.10;99.90;;;;;;5099166;28;20332;-80
2022/10/16 04:15:14;;;;;;;9.00;8.70;;;15.10;99.90;;;;;;5098491;28;20233;-81
2022/10/16 04:17:43;;;;;;;8.90;8.60;;;15.10;99.90;;;;;;5098824;28;20244;-81
2022/10/16 04:20:12;;;;;;;8.90;8.60;;;15.10;99.90;;;;;;5099750;28;20260;-80
2022/10/16 04:22:40;;;;;;;8.65;8.43;;;15.20;99.90;;;;;;5099400;28;20236;-80
2022/10/16 04:25:11;;;;;;;8.57;8.35;;;15.20;99.90;;;;;;5098543;28;20320;-81
2022/10/16 04:27:38;;;;;;;8.73;8.47;;;15.30;99.90;;;;;;5099146;28;20237;-80
2022/10/16 04:30:08;;;;;;;8.80;8.50;;;15.30;99.90;;;;;;5098908;28;20229;-81
2022/10/16 04:32:37;;;;;;;8.93;8.63;;;15.30;99.90;;;;;;5099643;28;20259;-80
2022/10/16 04:35:07;;;;;;;8.90;8.60;;;15.30;99.90;;;;;;5108303;28;20213;-80
2022/10/16 04:37:38;;;;;;;8.80;8.50;;;15.30;99.90;;;;;;5116093;27;20297;-80
2022/10/16 04:40:08;;;;;;;8.68;8.43;;;15.30;99.90;;;;;;5111952;28;20216;-82
2022/10/16 04:42:38;;;;;;;8.85;8.55;;;15.20;99.90;;;;;;5097486;28;20328;-81
2022/10/16 04:45:08;;;;;;;8.95;8.65;;;15.20;99.90;;;;;;5099488;28;20233;-80
2022/10/16 04:47:37;;;;;;;8.53;8.33;;;15.20;99.90;;;;;;5089160;28;20238;-80
2022/10/16 04:50:06;;;;;;;8.80;8.50;;;15.10;99.90;;;;;;5088795;28;20284;-81
2022/10/16 04:52:36;;;;;;;8.97;8.67;;;15.10;99.90;;;;;;5097625;28;20247;-81
2022/10/16 04:55:05;;;;;;;9.00;8.70;;;15.10;99.90;;;;;;5089784;28;20221;-80
2022/10/16 04:57:34;;;;;;;8.80;8.50;;;15.10;99.90;;;;;;5097818;28;20230;-80
2022/10/16 05:00:05;;;;;;;8.87;8.57;;;15.10;99.90;;;;;;5098340;28;20234;-80
2022/10/16 05:02:35;;;;;;;8.90;8.60;;;15.10;99.90;;;;;;5098190;28;20237;-81
2022/10/16 05:05:03;;;;;;;8.80;8.50;;;15.10;99.90;;;;;;5098206;28;20286;-80
2022/10/16 05:07:32;;;;;;;8.87;8.57;;;15.00;99.90;;;;;;5097855;28;20233;-81
2022/10/16 05:10:02;;;;;;;9.00;8.70;;;15.00;99.90;;;;;;5086680;28;20226;-79
2022/10/16 05:12:32;;;;;;;9.00;8.70;;;15.00;99.90;;;;;;5086546;28;20222;-80
2022/10/16 05:15:01;;;;;;;8.40;8.20;;;15.00;99.90;;;;;;5078733;28;20249;-80
2022/10/16 05:17:30;;;;;;;8.50;8.30;;;14.90;99.90;;;;;;5077577;28;20230;-81
2022/10/16 05:19:59;;;;;;;8.65;8.45;;;14.90;99.90;;;;;;5078534;28;20313;-80
2022/10/16 05:22:26;;;;;;;8.77;8.50;;;14.90;99.90;;;;;;5080708;28;20237;-79
2022/10/16 05:24:54;;;;;;;9.10;8.80;;;14.90;99.90;;;;;;5078896;28;20312;-79
2022/10/16 05:27:21;;;;;;;9.10;8.80;;;14.90;99.90;;;;;;5079130;28;20676;-79
2022/10/16 05:29:50;;;;;;;9.17;8.87;;;14.90;99.90;;;;;;5078562;28;20226;-79
2022/10/16 05:32:19;;;;;;;9.47;9.17;;;14.80;99.90;;;;;;5078637;28;20233;-79
2022/10/16 05:34:48;;;;;;;9.20;8.90;;;14.80;99.90;;;;;;5077874;28;20230;-79
2022/10/16 05:37:15;;;;;;;9.37;9.07;;;14.80;99.90;;;;;;5078479;28;20245;-79
2022/10/16 05:39:43;;;;;;;9.40;9.10;;;14.80;99.90;;;;;;5077985;28;20234;-78
2022/10/16 05:42:10;;;;;;;9.27;8.97;;;14.80;99.90;;;;;;5080323;28;20236;-79
2022/10/16 05:44:38;;;;;;;9.20;8.90;;;14.80;99.90;;;;;;5081286;28;20288;-79
2022/10/16 05:47:05;;;;;;;9.13;8.83;;;14.80;99.90;;;;;;5084587;28;20248;-79
2022/10/16 05:49:33;;;;;;;9.20;8.90;;;14.90;99.90;;;;;;5082432;28;20217;-79
2022/10/16 05:52:01;;;;;;;8.93;8.63;;;14.90;99.90;;;;;;5082334;28;20238;-79
2022/10/16 05:54:29;;;;;;;9.20;8.90;;;14.90;99.90;;;;;;5084002;28;20230;-78
2022/10/16 05:56:56;;;;;;;9.10;8.80;;;14.90;99.90;;;;;;5082207;28;20238;-79
2022/10/16 05:59:24;;;;;;;9.07;8.77;;;14.90;99.90;;;;;;5082562;28;20230;-79
2022/10/16 06:01:53;;;;;;;8.83;8.53;;;14.90;99.90;;;;;;5088858;28;20225;-78
2022/10/16 06:04:20;;;;;;;8.80;8.50;;;14.90;99.90;;;;;;5093451;28;20256;-79
2022/10/16 06:06:48;;;;;;;8.98;8.68;;;14.80;99.90;;;;;;5101662;28;20332;-79
2022/10/16 06:09:17;;;;;;;8.90;8.60;;;14.80;99.90;;;;;;5102110;28;20227;-78
2022/10/16 06:11:44;;;;;;;8.97;8.67;;;14.80;99.90;;;;;;5102272;28;20229;-79
2022/10/16 06:14:12;;;;;;;9.10;8.80;;;14.90;99.90;;;;;;5102249;28;20256;-78
2022/10/16 06:16:39;;;;;;;8.93;8.63;;;14.90;99.90;;;;;;5101449;28;20233;-79
2022/10/16 06:19:08;;;;;;;9.00;8.70;;;14.90;99.90;;;;;;5103205;28;20232;-79
2022/10/16 06:21:35;;;;;;;9.15;8.85;;;15.00;99.90;;;;;;5103582;28;21068;-79
2022/10/16 06:24:03;;;;;;;8.90;8.60;;;14.90;99.90;;;;;;5086618;28;20301;-79
2022/10/16 06:26:32;;;;;;;9.10;8.80;;;15.00;99.90;;;;;;5087241;28;20230;-78
2022/10/16 06:29:01;;;;;;;8.98;8.68;;;15.00;99.90;;;;;;5094222;28;20237;-79
2022/10/16 06:31:30;;;;;;;9.00;8.70;;;15.00;99.90;;;;;;5095272;28;20234;-79
2022/10/16 06:33:59;;;;;;;8.67;8.47;;;15.10;99.90;;;;;;5087233;28;20246;-78
2022/10/16 06:36:27;;;;;;;8.90;8.60;;;15.10;99.90;;;;;;5079909;28;20233;-79
2022/10/16 06:38:55;;;;;;;8.67;8.47;;;15.10;99.90;;;;;;5081302;28;20214;-81
2022/10/16 06:41:24;;;;;;;8.70;8.50;;;15.10;99.90;;;;;;5080855;28;20226;-78
2022/10/16 06:43:53;;;;;;;8.90;8.63;;;15.20;99.90;;;;;;5080939;28;20291;-77
2022/10/16 06:46:23;;;;;;;9.02;8.73;;;15.20;99.90;;;;;;5080440;28;20234;-78
2022/10/16 06:48:51;;;;;;;8.80;8.50;;;15.30;99.90;;;;;;5082527;28;20224;-78
2022/10/16 06:51:20;;;;;;;9.38;9.07;;;15.30;99.90;;;;;;5079926;28;20436;-78
2022/10/16 06:53:50;;;;;;;9.10;8.80;;;15.20;99.90;;;;;;5080656;28;20257;-79
2022/10/16 06:56:19;;;;;;;9.00;8.70;;;15.30;99.90;;;;;;5079542;28;20241;-78
2022/10/16 06:58:47;;;;;;;8.60;8.40;;;15.30;99.90;;;;;;5079061;28;20233;-78
2022/10/16 07:01:18;;;;;;;8.93;8.63;;;15.30;99.90;;;;;;5084023;28;20332;-79
2022/10/16 07:03:47;;;;;;;8.90;8.60;;;15.40;99.90;;;;;;5086323;28;20236;-81
2022/10/16 07:06:17;;;;;;;8.68;8.48;;;15.30;99.90;;;;;;5082671;28;20345;-78
2022/10/16 07:08:47;;;;;;;8.70;8.50;;;15.40;99.90;;;;;;5082591;28;20286;-80
2022/10/16 07:11:17;;;;;;;8.68;8.48;;;15.40;99.90;;;;;;5082264;28;20290;-79
2022/10/16 07:13:51;;;;;;;8.60;8.40;;;15.40;99.90;;;;;;5082672;28;20261;-78
2022/10/16 07:16:22;;;;;;;8.60;8.40;;;15.40;99.90;;;;;;5083830;28;20308;-80
2022/10/16 07:18:57;;;;;;;8.60;8.40;;;15.40;99.90;;;;;;5086308;28;20242;-80
2022/10/16 07:21:26;;;;;;;8.60;8.40;;;15.40;99.90;;;;;;5082757;28;20249;-79
2022/10/16 07:23:56;;;;;;;8.60;8.40;;;15.40;99.90;;;;;;5082329;28;20226;-80
2022/10/16 07:26:24;;;;;;;8.60;8.40;;;15.40;99.90;;;;;;5080924;28;20317;-80
2022/10/16 07:28:52;;;;;;;8.60;8.40;;;15.50;99.90;;;;;;5081226;28;20229;-78
2022/10/16 07:31:24;;;;;;;8.70;8.50;;;15.50;99.90;;;;;;5080357;28;20230;-79
2022/10/16 07:33:52;;;;;;;8.55;8.35;;;15.50;99.90;;;;;;5067921;28;20337;-77
2022/10/16 07:36:21;;;;;;;8.60;8.40;;;15.50;99.90;;;;;;5090630;28;20229;-79
2022/10/16 07:38:49;;;;;;;8.40;8.20;;;15.60;99.90;;;;;;5093622;28;20225;-80
2022/10/16 07:41:22;;;;;;;8.60;8.40;;;15.60;99.90;;;;;;5093760;28;20312;-80
2022/10/16 07:43:52;;;;;;;8.70;8.48;;;15.60;99.90;;;;;;5102066;28;20760;-79
2022/10/16 07:46:23;;;;;;;8.43;8.23;;;15.60;99.90;;;;;;5096826;28;20288;-80
2022/10/16 07:48:50;;;;;;;8.50;8.30;;;15.60;99.90;;;;;;5090200;28;20245;-81
2022/10/16 07:51:23;;;;;;;8.43;8.23;;;15.60;99.90;;;;;;5093240;28;20225;-79
2022/10/16 07:53:51;;;;;;;8.60;8.40;;;15.60;99.90;;;;;;5106225;28;20260;-79
2022/10/16 07:56:19;;;;;;;8.45;8.25;;;15.70;99.90;;;;;;5097870;28;20226;-79
2022/10/16 07:58:49;;;;;;;8.60;8.40;;;15.80;99.90;;;;;;5094282;28;20236;-80
2022/10/16 08:01:20;;;;;;;8.70;8.50;;;15.80;99.90;;;;;;5084517;28;20229;-81
2022/10/16 08:03:49;;;;;;;8.55;8.35;;;15.90;99.90;;;;;;5081205;28;20325;-80
2022/10/16 08:06:18;;;;;;;8.32;8.13;;;16.00;99.90;;;;;;5079683;28;20240;-82
2022/10/16 08:08:46;;;;;;;8.25;8.05;;;16.00;99.90;;;;;;5087823;28;20222;-81
2022/10/16 08:11:14;;;;;;;8.30;8.10;;;16.10;99.90;;;;;;5093298;28;20257;-82
2022/10/16 08:13:42;;;;;;;8.48;8.27;;;16.10;99.90;;;;;;5101089;28;20248;-82
2022/10/16 08:16:10;;;;;;;8.38;8.18;;;16.10;99.90;;;;;;5101015;28;20307;-82
2022/10/16 08:18:41;;;;;;;8.52;8.32;;;16.10;99.90;;;;;;5101175;28;20233;-83
2022/10/16 08:21:16;;;;;;;8.70;8.50;;;16.10;99.90;;;;;;5102682;28;20230;-82
2022/10/16 08:23:44;;;;;;;8.40;8.20;;;16.10;99.90;;;;;;5104964;28;20304;-81
2022/10/16 08:26:12;;;;;;;8.70;8.50;;;16.10;99.90;;;;;;5105327;28;20221;-81
2022/10/16 08:28:40;;;;;;;8.90;8.60;;;16.10;99.90;;;;;;5102528;28;20222;-82
2022/10/16 08:31:10;;;;;;;9.00;8.70;;;16.20;99.90;;;;;;5103523;28;20240;-85
2022/10/16 08:33:42;;;;;;;8.68;8.48;;;16.30;99.90;;;;;;5115062;27;20290;-80
2022/10/16 08:36:12;;;;;;;8.70;8.50;;;16.30;99.90;;;;;;5104547;27;20307;-81
2022/10/16 08:38:41;;;;;;;8.52;8.32;;;16.40;99.90;;;;;;5112083;28;20237;-82
2022/10/16 08:41:28;;;;;;;8.50;8.30;;;16.40;99.90;;;;;;5103452;28;20268;-82
2022/10/16 08:44:42;;;;;;;8.52;8.32;;;16.40;99.90;;;;;;5101268;28;20323;-82
2022/10/16 08:47:18;;;;;;;8.77;8.57;;;16.40;99.90;;;;;;5099581;28;20233;-82
2022/10/16 08:49:57;;;;;;;8.55;8.35;;;16.40;99.90;;;;;;5100166;28;20225;-82
2022/10/16 08:52:31;;;;;;;8.32;8.13;;;16.50;99.90;;;;;;5100790;28;20221;-82
2022/10/16 08:55:03;;;;;;;8.60;8.40;;;16.50;99.90;;;;;;5099941;28;20252;-85
2022/10/16 08:57:32;;;;;;;8.50;8.30;;;16.60;99.90;;;;;;5100938;28;20240;-83
2022/10/16 09:00:10;;;;;;;8.60;8.40;;;16.60;99.90;;;;;;5100358;28;20229;-85
2022/10/16 09:02:46;;;;;;;8.60;8.40;;;16.70;99.90;;;;;;5100064;28;20225;-84
2022/10/16 09:05:39;;;;;;;8.63;8.43;;;16.90;99.90;;;;;;5100073;28;20286;-82
2022/10/16 09:08:18;;;;;;;8.77;8.55;;;17.00;99.90;;;;;;5101101;28;20234;-83
2022/10/16 09:10:57;;;;;;;8.70;8.50;;;17.10;99.90;;;;;;5088784;28;20362;-84
2022/10/16 09:13:31;;;;;;;8.75;8.55;;;17.20;99.90;;;;;;5060900;28;20272;-84
2022/10/16 09:16:14;;;;;;;8.60;8.40;;;17.40;99.90;;;;;;5085994;28;20233;-83
2022/10/16 09:18:51;;;;;;;8.40;8.20;;;17.50;99.90;;;;;;5079631;28;20321;-83
2022/10/16 09:21:27;;;;;;;8.63;8.43;;;17.60;99.90;;;;;;5091479;28;20235;-82
2022/10/16 09:23:58;;;;;;;9.02;8.73;;;17.80;99.90;;;;;;5100647;28;20251;-85
2022/10/16 09:26:30;;;;;;;8.88;8.65;;;17.80;99.90;;;;;;5100121;28;20241;-85
2022/10/16 09:28:57;;;;;;;8.93;8.63;;;17.80;99.90;;;;;;5100306;28;20226;-85
2022/10/16 09:31:25;;;;;;;9.20;8.90;;;17.80;99.90;;;;;;5099150;28;20225;-82
2022/10/16 09:34:04;;;;;;;9.13;8.82;;;17.80;99.90;;;;;;5118206;27;20229;-82
2022/10/16 09:36:41;;;;;;;8.90;8.63;;;17.70;99.90;;;;;;5079487;28;20222;-79
2022/10/16 09:39:23;;;;;;;9.02;8.73;;;17.60;99.90;;;;;;5079772;28;20215;-78
2022/10/16 09:41:51;;;;;;;9.25;8.95;;;17.50;99.90;;;;;;5079921;28;20194;-79
2022/10/16 09:44:25;;;;;;;8.90;8.70;;;17.60;99.90;;;;;;5079654;28;20207;-80
2022/10/16 09:47:03;;;;;;;8.95;8.73;;;17.60;99.90;;;;;;5080138;28;20233;-78
2022/10/16 09:49:31;;;;;;;8.85;8.65;;;17.60;99.90;;;;;;5079925;28;20218;-80
2022/10/16 09:52:10;;;;;;;8.60;8.40;;;17.60;99.90;;;;;;5079679;28;20234;-80
2022/10/16 09:54:38;;;;;;;8.75;8.55;;;17.60;99.90;;;;;;5088601;28;20230;-82
2022/10/16 09:57:07;;;;;;;9.00;8.70;;;17.60;99.90;;;;;;5096402;28;20337;-82
2022/10/16 09:59:35;;;;;;;8.60;8.40;;;17.60;99.90;;;;;;5081430;28;20265;-81
2022/10/16 10:02:12;;;;;;;8.73;8.52;;;17.70;99.90;;;;;;5078161;28;20223;-80
2022/10/16 10:04:46;;;;;;;8.70;8.50;;;17.80;99.90;;;;;;5086043;28;20231;-82
2022/10/16 10:07:24;;;;;;;8.70;8.50;;;17.90;99.90;;;;;;5112744;28;20312;-82
2022/10/16 10:09:52;;;;;;;8.73;8.52;;;18.00;99.90;;;;;;5102306;28;20248;-84
2022/10/16 10:12:23;;;;;;;8.57;8.38;;;18.10;99.90;;;;;;5101554;28;20320;-83
2022/10/16 10:14:52;;;;;;;8.25;8.05;;;18.30;99.90;;;;;;5100778;28;20234;-83
2022/10/16 10:17:24;;;;;;;8.48;8.27;;;18.40;99.90;;;;;;5100508;28;20267;-83
2022/10/16 10:19:55;;;;;;;8.60;8.40;;;18.50;99.90;;;;;;5107500;28;20235;-83
2022/10/16 10:22:33;;;;;;;8.38;8.18;;;18.70;99.90;;;;;;5103178;28;20317;-84
2022/10/16 10:25:39;;;;;;;8.48;8.27;;;18.70;99.90;;;;;;5087853;28;20260;-82
2022/10/16 10:28:43;;;;;;;8.50;8.30;;;18.80;99.90;;;;;;5073325;28;20233;-83
2022/10/16 10:31:16;;;;;;;8.30;8.10;;;18.90;99.90;;;;;;5103077;28;20329;-83
2022/10/16 10:33:51;;;;;;;8.48;8.27;;;18.80;99.90;;;;;;5103280;28;20334;-83
2022/10/16 10:36:36;;;;;;;8.32;8.13;;;18.90;99.90;;;;;;5090138;28;20225;-82
2022/10/16 10:39:12;;;;;;;8.30;8.10;;;19.00;99.90;;;;;;5094661;28;20228;-82
2022/10/16 10:42:20;;;;;;;8.40;8.20;;;19.00;99.90;;;;;;5101109;28;20217;-81
2022/10/16 10:45:20;;;;;;;8.50;8.30;;;19.20;99.90;;;;;;5100632;28;20237;-81
2022/10/16 10:48:14;;;;;;;8.82;8.63;;;19.30;99.90;;;;;;5093036;28;20324;-87
2022/10/16 10:50:46;;;;;;;8.73;8.52;;;19.40;99.90;;;;;;5085390;28;20234;-86
2022/10/16 10:53:29;;;;;;;8.35;8.15;;;19.50;99.90;;;;;;5069490;28;20237;-82
2022/10/16 10:56:15;;;;;;;8.60;8.40;;;19.60;99.90;;;;;;5062966;28;20218;-82
2022/10/16 10:59:31;;;;;;;8.65;8.45;;;19.60;99.90;;;;;;5062565;28;20222;-83
2022/10/16 11:02:04;;;;;;;8.80;8.60;;;19.60;99.90;;;;;;5065727;28;20246;-83
2022/10/16 11:04:54;;;;;;;8.70;8.50;;;19.70;99.90;;;;;;5093478;28;20222;-82
2022/10/16 11:07:27;;;;;;;8.85;8.65;;;19.70;99.90;;;;;;5094076;28;20320;-83
2022/10/16 11:09:59;;;;;;;8.90;8.70;;;19.80;99.90;;;;;;5092309;28;20237;-82
2022/10/16 11:12:33;;;;;;;8.75;8.55;;;19.90;99.90;;;;;;5065055;28;20237;-82
2022/10/16 11:15:06;;;;;;;8.60;8.40;;;20.00;99.90;;;;;;5062383;28;20298;-82
2022/10/16 11:17:40;;;;;;;8.43;8.23;;;20.10;99.90;;;;;;5072173;28;20324;-82
2022/10/16 11:20:17;;;;;;;8.52;8.32;;;20.20;99.90;;;;;;5095966;28;20233;-82
2022/10/16 11:22:51;;;;;;;8.77;8.57;;;20.30;99.90;;;;;;5104092;28;20249;-82
2022/10/16 11:25:24;;;;;;;8.43;8.23;;;20.50;99.90;;;;;;5103656;28;20213;-82
2022/10/16 11:27:59;;;;;;;8.40;8.20;;;20.60;99.90;;;;;;5102922;28;20217;-80
2022/10/16 11:30:30;;;;;;;8.38;8.18;;;20.70;99.90;;;;;;5102529;28;20233;-82
2022/10/16 11:33:21;;;;;;;8.82;8.63;;;20.80;99.90;;;;;;5103960;28;20321;-83
2022/10/16 11:35:55;;;;;;;8.52;8.32;;;20.90;99.90;;;;;;5101951;28;20281;-83
2022/10/16 11:38:35;;;;;;;8.80;8.60;;;21.00;99.90;;;;;;5102167;28;20279;-81
2022/10/16 11:41:12;;;;;;;8.80;8.60;;;21.10;99.90;;;;;;5098030;28;20240;-82
2022/10/16 11:43:49;;;;;;;8.27;8.07;;;21.10;99.90;;;;;;5096300;28;20226;-83
2022/10/16 11:46:24;;;;;;;8.65;8.45;;;21.20;99.90;;;;;;5081952;28;20277;-84
2022/10/16 11:48:58;;;;;;;8.90;8.70;;;21.30;99.90;;;;;;5082695;28;20286;-84
2022/10/16 11:51:34;;;;;;;8.82;8.63;;;21.50;99.90;;;;;;5081264;28;20226;-84
2022/10/16 11:54:11;;;;;;;8.80;8.60;;;21.70;99.90;;;;;;5085430;28;20287;-79
2022/10/16 11:56:42;;;;;;;8.85;8.65;;;21.90;99.90;;;;;;5083212;28;20233;-84
2022/10/16 11:59:21;;;;;;;8.48;8.27;;;22.20;99.90;;;;;;5080269;28;20230;-83
2022/10/16 12:01:56;;;;;;;9.23;8.93;;;22.50;99.90;;;;;;5082386;28;20313;-83
2022/10/16 12:04:33;;;;;;;9.30;9.00;;;22.80;99.90;;;;;;5089728;28;20236;-84
2022/10/16 12:07:08;;;;;;;9.70;9.40;;;23.20;99.90;;;;;;5064053;28;20234;-85
2022/10/16 12:09:40;;;;;;;9.68;9.38;;;23.90;99.90;;;;;;5081969;28;20244;-83
2022/10/16 12:12:27;;;;;;;9.80;9.50;;;24.70;99.90;;;;;;5083544;28;20357;-84
2022/10/16 12:15:19;;;;;;;10.00;9.70;;;25.10;99.90;;;;;;5090115;28;20240;-82
2022/10/16 12:17:48;;;;;;;10.20;9.90;;;25.50;99.90;;;;;;5094459;28;20218;-82
2022/10/16 12:20:30;;;;;;;10.07;9.77;;;25.90;99.90;;;;;;5099602;28;20230;-81
2022/10/16 12:23:01;;;;;;;10.20;9.90;;;26.30;99.90;;;;;;5099941;28;20234;-83
2022/10/16 12:25:31;;;;;;;10.10;9.80;;;26.50;99.90;;;;;;5099723;28;20287;-81
2022/10/16 12:28:02;;;;;;;10.20;9.90;;;26.70;99.90;;;;;;5099687;28;20226;-82
2022/10/16 12:30:34;;;;;;;10.00;9.70;;;26.80;99.90;;;;;;5099373;28;20210;-79
2022/10/16 12:33:05;;;;;;;9.70;9.40;;;26.50;99.90;;;;;;5100504;28;20249;-79
2022/10/16 12:35:36;;;;;;;9.35;9.05;;;25.90;99.90;;;;;;5098827;28;20230;-79
2022/10/16 12:38:14;;;;;;;9.63;9.32;;;25.70;99.90;;;;;;5099001;28;20234;-80
2022/10/16 12:40:43;;;;;;;9.60;9.30;;;25.20;99.90;;;;;;5096901;28;20273;-80
2022/10/16 12:43:28;;;;;;;9.90;9.60;;;24.90;99.90;;;;;;5099380;28;20234;-79
2022/10/16 12:46:24;;;;;;;9.90;9.60;;;24.70;99.90;;;;;;5099313;28;20198;-78
2022/10/16 12:48:52;;;;;;;9.70;9.40;;;24.70;99.90;;;;;;5099323;28;20232;-79
2022/10/16 12:51:35;;;;;;;10.00;9.70;;;24.80;99.90;;;;;;5098906;28;20219;-79
2022/10/16 12:54:11;;;;;;;10.00;9.70;;;24.90;99.90;;;;;;5096351;28;20238;-79
2022/10/16 12:56:53;;;;;;;10.10;9.80;;;24.90;99.90;;;;;;5096632;28;20230;-80
2022/10/16 12:59:33;;;;;;;9.68;9.38;;;24.90;99.90;;;;;;5097435;28;20214;-81
2022/10/16 13:02:41;;;;;;;10.30;10.00;;;25.10;99.90;;;;;;5096603;28;20229;-82
2022/10/16 13:05:28;;;;;;;9.80;9.50;;;25.20;99.90;;;;;;5076340;28;20218;-83
2022/10/16 13:08:14;;;;;;;10.23;9.93;;;25.30;99.90;;;;;;5085141;28;20244;-84
2022/10/16 13:10:51;;;;;;;10.48;10.18;;;25.40;99.90;;;;;;5083028;28;20233;-84
2022/10/16 13:14:02;;;;;;;10.38;10.07;;;25.80;99.90;;;;;;5080842;28;20226;-81